sensor_id;sensor_type;location;lat;lon;timestamp;pressure;altitude;pressure_sealevel;temperature;humidity
36190;BME280;22232;50.914;13.858;2022-10-28T00:01:20;98585.81;;;14.67;100.00
36190;BME280;22232;50.914;13.858;2022-10-28T00:03:51;98576.94;;;14.67;100.00
36190;BME280;22232;50.914;13.858;2022-10-28T00:06:27;98572.88;;;14.64;100.00
36190;BME280;22232;50.914;13.858;2022-10-28T00:08:55;98570.88;;;14.60;100.00
36190;BME280;22232;50.914;13.858;2022-10-28T00:11:33;98574.84;;;14.57;100.00
36190;BME280;22232;50.914;13.858;2022-10-28T00:14:03;98576.97;;;14.55;100.00
36190;BME280;22232;50.914;13.858;2022-10-28T00:16:34;98585.25;;;14.54;100.00
36190;BME280;22232;50.914;13.858;2022-10-28T00:19:03;98567.84;;;14.56;100.00
36190;BME280;22232;50.914;13.858;2022-10-28T00:21:33;98577.41;;;14.64;100.00
36190;BME280;22232;50.914;13.858;2022-10-28T00:24:00;98577.16;;;14.65;100.00
36190;BME280;22232;50.914;13.858;2022-10-28T00:26:30;98573.78;;;14.70;100.00
36190;BME280;22232;50.914;13.858;2022-10-28T00:29:03;98572.72;;;14.71;100.00
36190;BME280;22232;50.914;13.858;2022-10-28T00:31:32;98566.88;;;14.74;100.00
36190;BME280;22232;50.914;13.858;2022-10-28T00:34:02;98577.72;;;14.79;100.00
36190;BME280;22232;50.914;13.858;2022-10-28T00:36:33;98575.03;;;14.79;100.00
36190;BME280;22232;50.914;13.858;2022-10-28T00:39:02;98572.34;;;14.79;100.00
36190;BME280;22232;50.914;13.858;2022-10-28T00:41:33;98577.94;;;14.78;100.00
36190;BME280;22232;50.914;13.858;2022-10-28T00:47:05;98574.25;;;14.67;100.00
36190;BME280;22232;50.914;13.858;2022-10-28T00:49:36;98572.53;;;14.61;100.00
36190;BME280;22232;50.914;13.858;2022-10-28T00:52:09;98573.56;;;14.60;100.00
36190;BME280;22232;50.914;13.858;2022-10-28T00:54:39;98568.53;;;14.63;100.00
36190;BME280;22232;50.914;13.858;2022-10-28T00:57:10;98560.34;;;14.70;100.00
36190;BME280;22232;50.914;13.858;2022-10-28T00:59:44;98561.53;;;14.62;100.00
36190;BME280;22232;50.914;13.858;2022-10-28T01:02:12;98565.41;;;14.55;100.00
36190;BME280;22232;50.914;13.858;2022-10-28T01:04:41;98556.31;;;14.56;100.00
36190;BME280;22232;50.914;13.858;2022-10-28T01:07:09;98547.66;;;14.54;100.00
36190;BME280;22232;50.914;13.858;2022-10-28T01:09:38;98553.84;;;14.54;100.00
36190;BME280;22232;50.914;13.858;2022-10-28T01:23:04;98541.25;;;14.55;100.00
36190;BME280;22232;50.914;13.858;2022-10-28T01:28:27;98545.56;;;14.56;100.00
36190;BME280;22232;50.914;13.858;2022-10-28T01:33:59;98541.31;;;14.72;100.00
36190;BME280;22232;50.914;13.858;2022-10-28T01:36:41;98531.22;;;14.79;100.00
36190;BME280;22232;50.914;13.858;2022-10-28T01:42:06;98528.66;;;14.84;100.00
36190;BME280;22232;50.914;13.858;2022-10-28T01:47:36;98538.13;;;14.75;100.00
36190;BME280;22232;50.914;13.858;2022-10-28T01:50:17;98529.03;;;14.76;100.00
36190;BME280;22232;50.914;13.858;2022-10-28T01:52:49;98538.09;;;14.58;100.00
36190;BME280;22232;50.914;13.858;2022-10-28T01:55:26;98541.34;;;14.48;100.00
36190;BME280;22232;50.914;13.858;2022-10-28T01:57:56;98534.03;;;14.43;100.00
36190;BME280;22232;50.914;13.858;2022-10-28T02:00:25;98540.94;;;14.39;100.00
36190;BME280;22232;50.914;13.858;2022-10-28T02:02:54;98536.13;;;14.41;100.00
36190;BME280;22232;50.914;13.858;2022-10-28T02:08:18;98536.38;;;14.52;100.00
36190;BME280;22232;50.914;13.858;2022-10-28T02:21:41;98530.84;;;14.46;100.00
36190;BME280;22232;50.914;13.858;2022-10-28T02:24:18;98536.13;;;14.41;100.00
36190;BME280;22232;50.914;13.858;2022-10-28T02:26:55;98537.19;;;14.40;100.00
36190;BME280;22232;50.914;13.858;2022-10-28T02:31:58;98530.88;;;14.35;100.00
36190;BME280;22232;50.914;13.858;2022-10-28T02:34:31;98527.41;;;14.34;100.00
36190;BME280;22232;50.914;13.858;2022-10-28T02:37:02;98528.91;;;14.30;100.00
36190;BME280;22232;50.914;13.858;2022-10-28T02:39:36;98525.66;;;14.28;100.00
36190;BME280;22232;50.914;13.858;2022-10-28T02:42:13;98526.69;;;14.27;100.00
36190;BME280;22232;50.914;13.858;2022-10-28T02:44:48;98533.00;;;14.21;100.00
36190;BME280;22232;50.914;13.858;2022-10-28T02:47:20;98528.09;;;14.18;100.00
36190;BME280;22232;50.914;13.858;2022-10-28T02:49:54;98522.84;;;14.23;100.00
36190;BME280;22232;50.914;13.858;2022-10-28T02:52:25;98515.41;;;14.25;100.00
36190;BME280;22232;50.914;13.858;2022-10-28T02:54:57;98512.47;;;14.27;100.00
36190;BME280;22232;50.914;13.858;2022-10-28T02:57:27;98517.84;;;14.27;100.00
36190;BME280;22232;50.914;13.858;2022-10-28T02:59:58;98518.63;;;14.27;100.00
36190;BME280;22232;50.914;13.858;2022-10-28T03:02:27;98517.94;;;14.32;100.00
36190;BME280;22232;50.914;13.858;2022-10-28T03:04:55;98513.63;;;14.31;100.00
36190;BME280;22232;50.914;13.858;2022-10-28T03:07:22;98513.16;;;14.34;100.00
36190;BME280;22232;50.914;13.858;2022-10-28T03:09:49;98513.38;;;14.32;100.00
36190;BME280;22232;50.914;13.858;2022-10-28T03:12:17;98523.53;;;14.30;100.00
36190;BME280;22232;50.914;13.858;2022-10-28T03:14:45;98522.97;;;14.28;100.00
36190;BME280;22232;50.914;13.858;2022-10-28T03:17:13;98522.97;;;14.28;100.00
36190;BME280;22232;50.914;13.858;2022-10-28T03:19:40;98524.47;;;14.36;100.00
36190;BME280;22232;50.914;13.858;2022-10-28T03:22:08;98523.28;;;14.43;100.00
36190;BME280;22232;50.914;13.858;2022-10-28T03:24:35;98520.25;;;14.52;100.00
36190;BME280;22232;50.914;13.858;2022-10-28T03:27:03;98514.75;;;14.46;100.00
36190;BME280;22232;50.914;13.858;2022-10-28T03:29:30;98509.75;;;14.38;100.00
36190;BME280;22232;50.914;13.858;2022-10-28T03:31:58;98512.25;;;14.28;100.00
36190;BME280;22232;50.914;13.858;2022-10-28T03:34:25;98520.28;;;14.28;100.00
36190;BME280;22232;50.914;13.858;2022-10-28T03:36:53;98510.03;;;14.25;100.00
36190;BME280;22232;50.914;13.858;2022-10-28T03:39:20;98519.22;;;14.29;100.00
36190;BME280;22232;50.914;13.858;2022-10-28T03:41:48;98511.66;;;14.26;100.00
36190;BME280;22232;50.914;13.858;2022-10-28T03:44:15;98511.31;;;14.22;100.00
36190;BME280;22232;50.914;13.858;2022-10-28T03:46:43;98506.56;;;14.13;100.00
36190;BME280;22232;50.914;13.858;2022-10-28T03:49:10;98508.06;;;14.09;100.00
36190;BME280;22232;50.914;13.858;2022-10-28T03:51:38;98508.44;;;14.00;100.00
36190;BME280;22232;50.914;13.858;2022-10-28T03:54:05;98503.78;;;13.96;100.00
36190;BME280;22232;50.914;13.858;2022-10-28T03:56:33;98507.19;;;13.91;100.00
36190;BME280;22232;50.914;13.858;2022-10-28T03:59:00;98507.31;;;13.85;100.00
36190;BME280;22232;50.914;13.858;2022-10-28T04:01:27;98509.16;;;13.84;100.00
36190;BME280;22232;50.914;13.858;2022-10-28T04:03:55;98504.50;;;13.80;100.00
36190;BME280;22232;50.914;13.858;2022-10-28T04:06:23;98506.03;;;13.75;100.00
36190;BME280;22232;50.914;13.858;2022-10-28T04:08:50;98509.88;;;13.80;100.00
36190;BME280;22232;50.914;13.858;2022-10-28T04:11:18;98501.69;;;13.86;100.00
36190;BME280;22232;50.914;13.858;2022-10-28T04:13:45;98501.81;;;13.91;100.00
36190;BME280;22232;50.914;13.858;2022-10-28T04:16:12;98498.66;;;13.83;100.00
36190;BME280;22232;50.914;13.858;2022-10-28T04:18:40;98493.66;;;13.74;100.00
36190;BME280;22232;50.914;13.858;2022-10-28T04:21:07;98504.63;;;13.73;100.00
36190;BME280;22232;50.914;13.858;2022-10-28T04:23:35;98507.19;;;13.68;100.00
36190;BME280;22232;50.914;13.858;2022-10-28T04:26:03;98507.78;;;13.70;100.00
36190;BME280;22232;50.914;13.858;2022-10-28T04:28:30;98510.56;;;13.75;100.00
36190;BME280;22232;50.914;13.858;2022-10-28T04:30:58;98507.88;;;13.75;100.00
36190;BME280;22232;50.914;13.858;2022-10-28T04:33:26;98503.34;;;13.64;100.00
36190;BME280;22232;50.914;13.858;2022-10-28T04:35:53;98497.03;;;13.58;100.00
36190;BME280;22232;50.914;13.858;2022-10-28T04:38:20;98505.19;;;13.63;100.00
36190;BME280;22232;50.914;13.858;2022-10-28T04:40:48;98502.03;;;13.66;100.00
36190;BME280;22232;50.914;13.858;2022-10-28T04:43:16;98507.66;;;13.65;100.00
36190;BME280;22232;50.914;13.858;2022-10-28T04:45:45;98498.31;;;13.56;100.00
36190;BME280;22232;50.914;13.858;2022-10-28T04:48:13;98494.38;;;13.46;100.00
36190;BME280;22232;50.914;13.858;2022-10-28T04:50:40;98496.56;;;13.38;100.00
36190;BME280;22232;50.914;13.858;2022-10-28T04:53:11;98493.19;;;13.30;100.00
36190;BME280;22232;50.914;13.858;2022-10-28T04:55:39;98495.72;;;13.25;100.00
36190;BME280;22232;50.914;13.858;2022-10-28T04:58:08;98490.25;;;13.32;100.00
36190;BME280;22232;50.914;13.858;2022-10-28T05:00:36;98494.94;;;13.37;100.00
36190;BME280;22232;50.914;13.858;2022-10-28T05:03:03;98490.28;;;13.44;100.00
36190;BME280;22232;50.914;13.858;2022-10-28T05:05:31;98487.25;;;13.52;100.00
36190;BME280;22232;50.914;13.858;2022-10-28T05:07:58;98485.06;;;13.61;100.00
36190;BME280;22232;50.914;13.858;2022-10-28T05:10:26;98472.13;;;13.58;100.00
36190;BME280;22232;50.914;13.858;2022-10-28T05:12:53;98479.56;;;13.56;100.00
36190;BME280;22232;50.914;13.858;2022-10-28T05:15:21;98477.94;;;13.54;100.00
36190;BME280;22232;50.914;13.858;2022-10-28T05:17:49;98480.50;;;13.49;100.00
36190;BME280;22232;50.914;13.858;2022-10-28T05:20:17;98475.34;;;13.48;100.00
36190;BME280;22232;50.914;13.858;2022-10-28T05:22:49;98482.25;;;13.44;100.00
36190;BME280;22232;50.914;13.858;2022-10-28T05:25:20;98485.03;;;13.37;100.00
36190;BME280;22232;50.914;13.858;2022-10-28T05:27:48;98477.59;;;13.39;100.00
36190;BME280;22232;50.914;13.858;2022-10-28T05:30:16;98476.66;;;13.34;100.00
36190;BME280;22232;50.914;13.858;2022-10-28T05:32:44;98471.75;;;13.30;100.00
36190;BME280;22232;50.914;13.858;2022-10-28T05:35:15;98474.75;;;13.22;100.00
36190;BME280;22232;50.914;13.858;2022-10-28T05:37:42;98483.69;;;13.16;100.00
36190;BME280;22232;50.914;13.858;2022-10-28T05:40:10;98482.75;;;13.11;100.00
36190;BME280;22232;50.914;13.858;2022-10-28T05:42:41;98481.13;;;13.09;100.00
36190;BME280;22232;50.914;13.858;2022-10-28T05:45:10;98474.97;;;13.09;100.00
36190;BME280;22232;50.914;13.858;2022-10-28T05:47:45;98485.22;;;13.12;100.00
36190;BME280;22232;50.914;13.858;2022-10-28T05:50:14;98483.69;;;13.16;100.00
36190;BME280;22232;50.914;13.858;2022-10-28T05:52:50;98490.00;;;13.22;100.00
36190;BME280;22232;50.914;13.858;2022-10-28T05:55:19;98491.41;;;13.24;100.00
36190;BME280;22232;50.914;13.858;2022-10-28T05:57:49;98488.41;;;13.32;100.00
36190;BME280;22232;50.914;13.858;2022-10-28T06:00:19;98480.50;;;13.38;100.00
36190;BME280;22232;50.914;13.858;2022-10-28T06:02:47;98479.91;;;13.47;100.00
36190;BME280;22232;50.914;13.858;2022-10-28T06:05:15;98472.91;;;13.46;100.00
36190;BME280;22232;50.914;13.858;2022-10-28T06:07:43;98483.66;;;13.46;100.00
36190;BME280;22232;50.914;13.858;2022-10-28T06:10:11;98482.84;;;13.58;100.00
36190;BME280;22232;50.914;13.858;2022-10-28T06:12:39;98488.88;;;13.65;100.00
36190;BME280;22232;50.914;13.858;2022-10-28T06:15:07;98487.34;;;13.69;100.00
36190;BME280;22232;50.914;13.858;2022-10-28T06:17:35;98483.66;;;13.70;100.00
36190;BME280;22232;50.914;13.858;2022-10-28T06:20:03;98485.28;;;13.71;100.00
36190;BME280;22232;50.914;13.858;2022-10-28T06:22:31;98489.81;;;13.70;100.00
36190;BME280;22232;50.914;13.858;2022-10-28T06:24:58;98483.66;;;13.70;100.00
36190;BME280;22232;50.914;13.858;2022-10-28T06:27:26;98490.03;;;13.69;100.00
36190;BME280;22232;50.914;13.858;2022-10-28T06:29:53;98492.25;;;13.72;100.00
36190;BME280;22232;50.914;13.858;2022-10-28T06:32:21;98486.88;;;13.72;100.00
36190;BME280;22232;50.914;13.858;2022-10-28T06:34:48;98483.66;;;13.70;100.00
36190;BME280;22232;50.914;13.858;2022-10-28T06:37:16;98492.50;;;13.70;100.00
36190;BME280;22232;50.914;13.858;2022-10-28T06:39:43;98493.31;;;13.71;100.00
36190;BME280;22232;50.914;13.858;2022-10-28T06:42:12;98495.66;;;13.79;100.00
36190;BME280;22232;50.914;13.858;2022-10-28T06:44:39;98497.47;;;13.90;100.00
36190;BME280;22232;50.914;13.858;2022-10-28T06:47:07;98493.53;;;13.93;100.00
36190;BME280;22232;50.914;13.858;2022-10-28T06:49:35;98493.28;;;13.94;100.00
36190;BME280;22232;50.914;13.858;2022-10-28T06:52:02;98500.06;;;13.97;100.00
36190;BME280;22232;50.914;13.858;2022-10-28T06:54:30;98505.75;;;14.00;100.00
36190;BME280;22232;50.914;13.858;2022-10-28T06:56:57;98514.28;;;14.09;100.00
36190;BME280;22232;50.914;13.858;2022-10-28T06:59:24;98513.66;;;14.19;100.00
36190;BME280;22232;50.914;13.858;2022-10-28T07:01:52;98505.97;;;14.11;100.00
36190;BME280;22232;50.914;13.858;2022-10-28T07:04:20;98505.75;;;14.12;100.00
36190;BME280;22232;50.914;13.858;2022-10-28T07:06:47;98505.47;;;14.26;100.00
36190;BME280;22232;50.914;13.858;2022-10-28T07:09:18;98514.41;;;14.55;100.00
36190;BME280;22232;50.914;13.858;2022-10-28T07:11:49;98517.84;;;14.96;100.00
36190;BME280;22232;50.914;13.858;2022-10-28T07:14:21;98507.16;;;15.46;100.00
36190;BME280;22232;50.914;13.858;2022-10-28T07:16:49;98504.41;;;15.97;100.00
36190;BME280;22232;50.914;13.858;2022-10-28T07:19:16;98500.44;;;16.43;100.00
36190;BME280;22232;50.914;13.858;2022-10-28T07:21:48;98503.03;;;16.82;100.00
36190;BME280;22232;50.914;13.858;2022-10-28T07:24:16;98502.06;;;16.93;100.00
36190;BME280;22232;50.914;13.858;2022-10-28T07:26:43;98512.94;;;17.04;100.00
36190;BME280;22232;50.914;13.858;2022-10-28T07:29:13;98508.97;;;17.11;100.00
36190;BME280;22232;50.914;13.858;2022-10-28T07:31:41;98510.69;;;17.23;100.00
36190;BME280;22232;50.914;13.858;2022-10-28T07:34:08;98514.72;;;17.20;100.00
36190;BME280;22232;50.914;13.858;2022-10-28T07:36:36;98521.81;;;17.31;100.00
36190;BME280;22232;50.914;13.858;2022-10-28T07:39:03;98513.06;;;17.19;100.00
36190;BME280;22232;50.914;13.858;2022-10-28T07:41:31;98524.88;;;16.86;100.00
36190;BME280;22232;50.914;13.858;2022-10-28T07:43:58;98519.25;;;16.65;100.00
36190;BME280;22232;50.914;13.858;2022-10-28T07:46:26;98521.16;;;16.92;100.00
36190;BME280;22232;50.914;13.858;2022-10-28T07:48:54;98523.91;;;17.24;100.00
36190;BME280;22232;50.914;13.858;2022-10-28T07:51:21;98526.03;;;17.54;100.00
36190;BME280;22232;50.914;13.858;2022-10-28T07:53:49;98522.50;;;17.86;100.00
36190;BME280;22232;50.914;13.858;2022-10-28T07:56:17;98527.63;;;17.82;100.00
36190;BME280;22232;50.914;13.858;2022-10-28T07:58:44;98523.53;;;17.80;100.00
36190;BME280;22232;50.914;13.858;2022-10-28T08:01:14;98526.44;;;17.68;100.00
36190;BME280;22232;50.914;13.858;2022-10-28T08:03:43;98528.91;;;17.75;100.00
36190;BME280;22232;50.914;13.858;2022-10-28T08:06:16;98519.00;;;17.80;100.00
36190;BME280;22232;50.914;13.858;2022-10-28T08:08:45;98529.56;;;17.87;100.00
36190;BME280;22232;50.914;13.858;2022-10-28T08:13:40;98543.94;;;17.65;100.00
36190;BME280;22232;50.914;13.858;2022-10-28T08:16:08;98553.34;;;17.31;100.00
36190;BME280;22232;50.914;13.858;2022-10-28T08:18:37;98554.25;;;17.41;100.00
36190;BME280;22232;50.914;13.858;2022-10-28T08:21:07;98545.16;;;17.48;100.00
36190;BME280;22232;50.914;13.858;2022-10-28T08:23:35;98547.31;;;17.51;100.00
36190;BME280;22232;50.914;13.858;2022-10-28T08:26:03;98541.84;;;17.40;100.00
36190;BME280;22232;50.914;13.858;2022-10-28T08:28:30;98545.13;;;17.15;100.00
36190;BME280;22232;50.914;13.858;2022-10-28T08:31:02;98543.06;;;16.95;100.00
36190;BME280;22232;50.914;13.858;2022-10-28T08:33:41;98546.84;;;17.00;100.00
36190;BME280;22232;50.914;13.858;2022-10-28T08:36:12;98544.97;;;17.00;100.00
36190;BME280;22232;50.914;13.858;2022-10-28T08:38:42;98547.06;;;16.93;100.00
36190;BME280;22232;50.914;13.858;2022-10-28T08:41:30;98546.50;;;17.18;100.00
36190;BME280;22232;50.914;13.858;2022-10-28T08:44:38;98540.13;;;17.29;100.00
36190;BME280;22232;50.914;13.858;2022-10-28T08:47:14;98542.94;;;17.12;100.00
36190;BME280;22232;50.914;13.858;2022-10-28T08:49:44;98537.09;;;17.20;100.00
36190;BME280;22232;50.914;13.858;2022-10-28T08:52:40;98544.72;;;17.29;100.00
36190;BME280;22232;50.914;13.858;2022-10-28T08:55:14;98542.16;;;17.44;100.00
36190;BME280;22232;50.914;13.858;2022-10-28T08:57:47;98545.38;;;17.46;100.00
36190;BME280;22232;50.914;13.858;2022-10-28T09:00:31;98548.66;;;17.48;100.00
36190;BME280;22232;50.914;13.858;2022-10-28T09:05:41;98534.47;;;17.63;100.00
36190;BME280;22232;50.914;13.858;2022-10-28T09:08:24;98534.69;;;17.56;100.00
36190;BME280;22232;50.914;13.858;2022-10-28T09:19:02;98544.41;;;17.57;100.00
36190;BME280;22232;50.914;13.858;2022-10-28T09:21:36;98543.13;;;17.33;100.00
36190;BME280;22232;50.914;13.858;2022-10-28T09:24:16;98540.22;;;17.39;100.00
36190;BME280;22232;50.914;13.858;2022-10-28T09:26:51;98536.19;;;17.42;100.00
36190;BME280;22232;50.914;13.858;2022-10-28T09:29:41;98538.50;;;17.60;100.00
36190;BME280;22232;50.914;13.858;2022-10-28T09:32:22;98540.28;;;17.82;100.00
36190;BME280;22232;50.914;13.858;2022-10-28T09:35:20;98534.13;;;17.86;100.00
36190;BME280;22232;50.914;13.858;2022-10-28T09:37:51;98530.59;;;17.86;100.00
36190;BME280;22232;50.914;13.858;2022-10-28T09:40:25;98532.66;;;17.74;100.00
36190;BME280;22232;50.914;13.858;2022-10-28T09:42:58;98532.47;;;17.48;100.00
36190;BME280;22232;50.914;13.858;2022-10-28T09:45:31;98533.09;;;17.28;100.00
36190;BME280;22232;50.914;13.858;2022-10-28T09:48:02;98530.38;;;17.23;100.00
36190;BME280;22232;50.914;13.858;2022-10-28T09:50:32;98532.28;;;17.23;100.00
36190;BME280;22232;50.914;13.858;2022-10-28T09:53:20;98530.69;;;17.27;100.00
36190;BME280;22232;50.914;13.858;2022-10-28T09:55:52;98530.84;;;17.47;100.00
36190;BME280;22232;50.914;13.858;2022-10-28T09:58:20;98529.44;;;17.77;100.00
36190;BME280;22232;50.914;13.858;2022-10-28T10:00:48;98522.09;;;18.09;100.00
36190;BME280;22232;50.914;13.858;2022-10-28T10:03:16;98524.44;;;18.38;100.00
36190;BME280;22232;50.914;13.858;2022-10-28T10:05:47;98515.03;;;18.61;100.00
36190;BME280;22232;50.914;13.858;2022-10-28T10:08:18;98523.13;;;18.56;100.00
36190;BME280;22232;50.914;13.858;2022-10-28T10:10:59;98519.44;;;18.77;100.00
36190;BME280;22232;50.914;13.858;2022-10-28T10:13:36;98520.31;;;19.03;100.00
36190;BME280;22232;50.914;13.858;2022-10-28T10:16:17;98511.53;;;18.71;100.00
36190;BME280;22232;50.914;13.858;2022-10-28T10:18:50;98510.84;;;18.28;100.00
36190;BME280;22232;50.914;13.858;2022-10-28T10:21:57;98510.19;;;18.00;100.00
36190;BME280;22232;50.914;13.858;2022-10-28T10:24:34;98504.44;;;17.86;100.00
36190;BME280;22232;50.914;13.858;2022-10-28T10:29:36;98495.59;;;17.96;100.00
36190;BME280;22232;50.914;13.858;2022-10-28T10:32:11;98499.88;;;17.87;100.00
36190;BME280;22232;50.914;13.858;2022-10-28T10:34:49;98495.91;;;18.05;100.00
36190;BME280;22232;50.914;13.858;2022-10-28T10:37:21;98494.03;;;18.05;100.00
36190;BME280;22232;50.914;13.858;2022-10-28T10:40:16;98490.59;;;18.20;100.00
36190;BME280;22232;50.914;13.858;2022-10-28T10:42:45;98493.72;;;18.60;100.00
36190;BME280;22232;50.914;13.858;2022-10-28T10:45:33;98481.91;;;18.91;100.00
36190;BME280;22232;50.914;13.858;2022-10-28T10:48:13;98480.28;;;19.16;100.00
36190;BME280;22232;50.914;13.858;2022-10-28T10:50:46;98470.03;;;19.33;100.00
36190;BME280;22232;50.914;13.858;2022-10-28T10:53:30;98458.91;;;19.60;100.00
36190;BME280;22232;50.914;13.858;2022-10-28T10:56:03;98453.75;;;19.54;100.00
36190;BME280;22232;50.914;13.858;2022-10-28T10:58:34;98451.34;;;19.67;100.00
36190;BME280;22232;50.914;13.858;2022-10-28T11:01:05;98456.75;;;19.52;100.00
36190;BME280;22232;50.914;13.858;2022-10-28T11:03:37;98455.94;;;19.72;100.00
36190;BME280;22232;50.914;13.858;2022-10-28T11:06:07;98453.22;;;19.62;100.00
36190;BME280;22232;50.914;13.858;2022-10-28T11:09:04;98449.47;;;19.37;100.00
36190;BME280;22232;50.914;13.858;2022-10-28T11:11:38;98450.84;;;19.14;100.00
36190;BME280;22232;50.914;13.858;2022-10-28T11:14:19;98439.22;;;19.09;100.00
36190;BME280;22232;50.914;13.858;2022-10-28T11:16:50;98431.63;;;19.16;100.00
36190;BME280;22232;50.914;13.858;2022-10-28T11:27:37;98414.00;;;19.54;100.00
36190;BME280;22232;50.914;13.858;2022-10-28T11:30:14;98413.44;;;19.62;100.00
36190;BME280;22232;50.914;13.858;2022-10-28T11:33:12;98414.78;;;19.60;100.00
36190;BME280;22232;50.914;13.858;2022-10-28T11:36:36;98405.88;;;19.69;100.00
36190;BME280;22232;50.914;13.858;2022-10-28T11:39:24;98407.69;;;19.94;100.00
36190;BME280;22232;50.914;13.858;2022-10-28T11:44:44;98400.59;;;20.09;100.00
36190;BME280;22232;50.914;13.858;2022-10-28T12:12:59;98361.69;;;20.78;100.00
36190;BME280;22232;50.914;13.858;2022-10-28T12:18:13;98357.91;;;20.74;100.00
36190;BME280;22232;50.914;13.858;2022-10-28T12:23:40;98366.84;;;21.09;100.00
36190;BME280;22232;50.914;13.858;2022-10-28T12:26:12;98355.16;;;21.43;100.00
36190;BME280;22232;50.914;13.858;2022-10-28T12:28:49;98353.13;;;21.77;100.00
36190;BME280;22232;50.914;13.858;2022-10-28T12:31:24;98341.63;;;22.05;100.00
36190;BME280;22232;50.914;13.858;2022-10-28T12:33:56;98341.44;;;22.20;100.00
36190;BME280;22232;50.914;13.858;2022-10-28T12:36:40;98345.69;;;22.07;100.00
36190;BME280;22232;50.914;13.858;2022-10-28T12:41:46;98334.50;;;21.90;100.00
36190;BME280;22232;50.914;13.858;2022-10-28T12:44:22;98336.47;;;21.60;100.00
36190;BME280;22232;50.914;13.858;2022-10-28T12:46:56;98343.66;;;21.51;100.00
36190;BME280;22232;50.914;13.858;2022-10-28T12:52:34;98334.63;;;21.31;100.00
36190;BME280;22232;50.914;13.858;2022-10-28T12:57:38;98332.53;;;21.23;100.00
36190;BME280;22232;50.914;13.858;2022-10-28T13:00:24;98330.72;;;21.14;100.00
36190;BME280;22232;50.914;13.858;2022-10-28T13:03:03;98331.88;;;21.07;100.00
36190;BME280;22232;50.914;13.858;2022-10-28T13:05:59;98333.91;;;21.21;100.00
36190;BME280;22232;50.914;13.858;2022-10-28T13:19:35;98322.50;;;20.95;100.00
36190;BME280;22232;50.914;13.858;2022-10-28T13:22:28;98329.09;;;20.83;100.00
36190;BME280;22232;50.914;13.858;2022-10-28T13:27:56;98327.63;;;20.67;100.00
36190;BME280;22232;50.914;13.858;2022-10-28T13:30:25;98326.06;;;20.61;100.00
36190;BME280;22232;50.914;13.858;2022-10-28T13:33:04;98329.25;;;20.68;100.00
36190;BME280;22232;50.914;13.858;2022-10-28T13:35:32;98326.50;;;20.73;100.00
36190;BME280;22232;50.914;13.858;2022-10-28T13:38:01;98311.50;;;20.81;100.00
36190;BME280;22232;50.914;13.858;2022-10-28T13:42:57;98325.25;;;20.90;100.00
36190;BME280;22232;50.914;13.858;2022-10-28T13:56:16;98330.25;;;20.77;98.78
36190;BME280;22232;50.914;13.858;2022-10-28T13:58:53;98329.44;;;20.77;100.00
36190;BME280;22232;50.914;13.858;2022-10-28T14:04:03;98329.91;;;20.84;95.52
36190;BME280;22232;50.914;13.858;2022-10-28T14:06:33;98334.75;;;20.87;96.95
36190;BME280;22232;50.914;13.858;2022-10-28T14:09:01;98334.19;;;20.90;96.92
36190;BME280;22232;50.914;13.858;2022-10-28T14:11:29;98332.59;;;20.89;94.40
36190;BME280;22232;50.914;13.858;2022-10-28T14:14:01;98330.78;;;20.79;92.48
36190;BME280;22232;50.914;13.858;2022-10-28T14:16:42;98337.28;;;20.78;91.97
36190;BME280;22232;50.914;13.858;2022-10-28T14:24:35;98342.97;;;20.43;92.14
36190;BME280;22232;50.914;13.858;2022-10-28T14:29:48;98330.53;;;20.36;93.74
36190;BME280;22232;50.914;13.858;2022-10-28T14:35:22;98335.53;;;20.14;98.33
36190;BME280;22232;50.914;13.858;2022-10-28T14:40:53;98328.88;;;19.96;97.31
36190;BME280;22232;50.914;13.858;2022-10-28T14:46:34;98335.75;;;19.78;98.43
36190;BME280;22232;50.914;13.858;2022-10-28T14:49:30;98328.22;;;19.65;99.46
36190;BME280;22232;50.914;13.858;2022-10-28T14:52:19;98328.47;;;19.58;100.00
36190;BME280;22232;50.914;13.858;2022-10-28T14:54:51;98326.38;;;19.45;100.00
36190;BME280;22232;50.914;13.858;2022-10-28T14:57:29;98331.81;;;19.30;100.00
36190;BME280;22232;50.914;13.858;2022-10-28T15:00:04;98330.75;;;19.25;100.00
36190;BME280;22232;50.914;13.858;2022-10-28T15:02:34;98321.31;;;19.18;100.00
36190;BME280;22232;50.914;13.858;2022-10-28T15:05:14;98321.59;;;19.11;100.00
36190;BME280;22232;50.914;13.858;2022-10-28T15:07:43;98323.19;;;19.07;100.00
36190;BME280;22232;50.914;13.858;2022-10-28T15:12:42;98317.03;;;18.91;100.00
36190;BME280;22232;50.914;13.858;2022-10-28T15:15:18;98321.91;;;18.84;100.00
36190;BME280;22232;50.914;13.858;2022-10-28T15:17:47;98329.19;;;18.78;100.00
36190;BME280;22232;50.914;13.858;2022-10-28T15:20:27;98327.81;;;18.71;100.00
36190;BME280;22232;50.914;13.858;2022-10-28T15:23:18;98322.41;;;18.71;100.00
36190;BME280;22232;50.914;13.858;2022-10-28T15:26:04;98324.56;;;18.64;100.00
36190;BME280;22232;50.914;13.858;2022-10-28T15:28:32;98318.09;;;18.60;100.00
36190;BME280;22232;50.914;13.858;2022-10-28T15:31:00;98315.09;;;18.56;100.00
36190;BME280;22232;50.914;13.858;2022-10-28T15:33:36;98312.94;;;18.53;100.00
36190;BME280;22232;50.914;13.858;2022-10-28T15:36:16;98310.78;;;18.50;100.00
36190;BME280;22232;50.914;13.858;2022-10-28T15:38:47;98307.81;;;18.46;100.00
36190;BME280;22232;50.914;13.858;2022-10-28T15:43:54;98309.19;;;18.39;100.00
36190;BME280;22232;50.914;13.858;2022-10-28T15:46:23;98306.19;;;18.40;100.00